createdAt,value
2019-02-18T00:02:22.591Z,20.35
2019-02-18T00:04:48.840Z,22.53
2019-02-18T00:07:15.786Z,18.70
2019-02-18T00:09:42.033Z,18.55
2019-02-18T00:12:08.284Z,22.55
2019-02-18T00:14:34.610Z,20.00
2019-02-18T00:17:00.973Z,17.35
2019-02-18T00:19:27.289Z,26.00
2019-02-18T00:21:53.521Z,21.05
2019-02-18T00:24:19.768Z,20.70
2019-02-18T00:26:46.108Z,21.33
2019-02-18T00:29:12.341Z,17.35
2019-02-18T00:31:38.570Z,23.32
2019-02-18T00:34:04.930Z,20.48
2019-02-18T00:36:31.161Z,19.60
2019-02-18T00:38:57.406Z,18.20
2019-02-18T00:41:23.668Z,21.68
2019-02-18T00:43:49.892Z,19.23
2019-02-18T00:46:16.146Z,19.60
2019-02-18T00:48:42.378Z,20.43
2019-02-18T00:51:08.824Z,18.45
2019-02-18T00:53:35.078Z,18.02
2019-02-18T00:56:01.320Z,22.30
2019-02-18T00:58:27.548Z,23.38
2019-02-18T01:00:53.884Z,24.85
2019-02-18T01:03:20.127Z,17.48
2019-02-18T01:05:46.453Z,18.90
2019-02-18T01:08:12.786Z,19.67
2019-02-18T01:10:39.114Z,26.55
2019-02-18T01:13:05.336Z,28.50
2019-02-18T01:15:31.572Z,19.73
2019-02-18T01:17:57.845Z,18.55
2019-02-18T01:20:24.084Z,26.42
2019-02-18T01:22:50.481Z,26.20
2019-02-18T01:25:16.749Z,22.35
2019-02-18T01:27:43.088Z,21.65
2019-02-18T01:30:13.941Z,26.55
2019-02-18T01:32:40.289Z,24.95
2019-02-18T01:35:06.713Z,23.12
2019-02-18T01:37:32.948Z,29.20
2019-02-18T01:39:59.281Z,30.23
2019-02-18T01:42:25.533Z,39.25
2019-02-18T01:44:52.177Z,47.25
2019-02-18T01:47:18.522Z,39.35
2019-02-18T01:49:44.747Z,37.08
2019-02-18T01:52:11.082Z,38.65
2019-02-18T01:54:37.426Z,37.78
2019-02-18T01:57:03.700Z,38.35
2019-02-18T01:59:30.029Z,39.23
2019-02-18T02:01:56.365Z,39.70
2019-02-18T02:04:22.582Z,38.45
2019-02-18T02:06:48.810Z,40.78
2019-02-18T02:09:16.251Z,35.50
2019-02-18T02:11:42.494Z,36.08
2019-02-18T02:14:08.853Z,29.60
2019-02-18T02:16:35.109Z,31.65
2019-02-18T02:19:01.355Z,26.70
2019-02-18T02:21:27.613Z,26.80
2019-02-18T02:23:53.975Z,28.02
2019-02-18T02:26:20.310Z,24.00
2019-02-18T02:28:46.635Z,26.50
2019-02-18T02:31:12.992Z,28.47
2019-02-18T02:33:39.224Z,30.10
2019-02-18T02:36:05.465Z,25.55
2019-02-18T02:38:31.822Z,27.90
2019-02-18T02:40:58.157Z,27.70
2019-02-18T02:43:24.496Z,26.57
2019-02-18T02:45:50.842Z,26.60
2019-02-18T02:48:17.095Z,26.57
2019-02-18T02:50:43.371Z,33.42
2019-02-18T02:53:09.720Z,29.05
2019-02-18T02:55:36.043Z,36.48
2019-02-18T02:58:02.285Z,34.78
2019-02-18T03:00:29.686Z,39.75
2019-02-18T03:02:56.005Z,36.98
2019-02-18T03:05:22.336Z,42.85
2019-02-18T03:07:48.682Z,34.78
2019-02-18T03:10:14.909Z,41.10
2019-02-18T03:12:41.142Z,40.88
2019-02-18T03:15:10.597Z,39.83
2019-02-18T03:17:36.830Z,42.05
2019-02-18T03:20:05.662Z,36.93
2019-02-18T03:22:32.017Z,41.18
2019-02-18T03:25:10.898Z,42.25
2019-02-18T03:27:37.150Z,41.75
2019-02-18T03:30:28.439Z,36.08
2019-02-18T03:32:54.871Z,37.88
2019-02-18T03:35:21.191Z,30.82
2019-02-18T03:37:47.523Z,38.50
2019-02-18T03:40:13.773Z,34.67
2019-02-18T03:42:40.109Z,41.80
2019-02-18T03:45:06.852Z,44.73
2019-02-18T03:47:33.183Z,49.88
2019-02-18T03:49:59.417Z,45.52
2019-02-18T03:52:25.645Z,42.08
2019-02-18T03:54:51.888Z,43.35
2019-02-18T03:57:18.108Z,43.45
2019-02-18T03:59:44.495Z,51.08
2019-02-18T04:02:10.853Z,47.50
2019-02-18T04:04:37.175Z,47.55
2019-02-18T04:07:03.498Z,42.93
2019-02-18T04:09:29.767Z,42.10
2019-02-18T04:11:56.075Z,46.70
2019-02-18T04:14:22.305Z,41.13
2019-02-18T04:16:48.568Z,43.15
2019-02-18T04:19:14.893Z,43.50
2019-02-18T04:21:41.181Z,44.48
2019-02-18T04:24:07.507Z,47.25
2019-02-18T04:26:33.826Z,40.98
2019-02-18T04:29:00.056Z,44.38
2019-02-18T04:31:26.289Z,40.55
2019-02-18T04:33:52.543Z,43.08
2019-02-18T04:36:18.881Z,46.08
2019-02-18T04:38:53.901Z,43.33
2019-02-18T04:41:13.251Z,44.45
2019-02-18T04:43:42.001Z,39.08
2019-02-18T04:46:07.641Z,39.92
2019-02-18T04:48:33.855Z,39.85
2019-02-18T04:51:00.203Z,40.20
2019-02-18T04:53:26.562Z,45.63
2019-02-18T04:55:52.900Z,43.68
2019-02-18T04:58:19.145Z,49.38
2019-02-18T05:00:45.561Z,40.90
2019-02-18T05:03:11.789Z,43.33
2019-02-18T05:05:38.013Z,44.70
2019-02-18T05:08:04.262Z,45.40
2019-02-18T05:10:30.758Z,37.65
2019-02-18T05:12:57.081Z,42.83
2019-02-18T05:15:23.326Z,47.95
2019-02-18T05:17:49.645Z,41.85
2019-02-18T05:20:15.889Z,46.70
2019-02-18T05:22:42.151Z,45.45
2019-02-18T05:25:08.562Z,48.87
2019-02-18T05:27:34.857Z,54.77
2019-02-18T05:30:01.206Z,48.68
2019-02-18T05:32:27.531Z,49.98
2019-02-18T05:34:53.856Z,48.25
2019-02-18T05:37:20.090Z,51.85
2019-02-18T05:39:46.326Z,44.60
2019-02-18T05:42:12.571Z,51.08
2019-02-18T05:44:38.849Z,54.50
2019-02-18T05:47:05.157Z,41.10
2019-02-18T05:49:31.390Z,52.80
2019-02-18T05:51:57.638Z,47.90
2019-02-18T05:54:23.860Z,41.48
2019-02-18T05:56:50.197Z,47.03
2019-02-18T05:59:16.488Z,46.23
2019-02-18T06:01:42.923Z,48.33
2019-02-18T06:04:09.242Z,43.05
2019-02-18T06:06:35.482Z,45.23
2019-02-18T06:09:01.710Z,41.02
2019-02-18T06:11:27.960Z,41.88
2019-02-18T06:13:54.303Z,42.58
2019-02-18T06:16:20.647Z,45.58
2019-02-18T06:18:47.048Z,41.60
2019-02-18T06:21:13.326Z,49.38
2019-02-18T06:23:39.565Z,44.98
2019-02-18T06:26:05.827Z,49.83
2019-02-18T06:28:32.172Z,44.60
2019-02-18T06:30:58.521Z,56.20
2019-02-18T06:33:24.840Z,47.53
2019-02-18T06:35:51.189Z,52.48
2019-02-18T06:38:17.441Z,50.38
2019-02-18T06:40:43.772Z,46.08
2019-02-18T06:43:10.124Z,52.78
2019-02-18T06:45:38.255Z,55.80
2019-02-18T06:48:18.560Z,47.70
2019-02-18T06:50:45.094Z,50.23
2019-02-18T06:53:11.332Z,46.53
2019-02-18T06:55:37.564Z,49.00
2019-02-18T06:58:05.802Z,48.33
2019-02-18T07:03:02.130Z,38.13
2019-02-18T07:05:30.264Z,45.17
2019-02-18T07:07:58.521Z,40.08
2019-02-18T07:10:29.340Z,41.50
2019-02-18T07:12:55.713Z,43.00
2019-02-18T07:15:21.957Z,41.55
2019-02-18T07:17:48.208Z,43.75
2019-02-18T07:20:14.527Z,47.27
2019-02-18T07:22:40.803Z,47.65
2019-02-18T07:25:08.337Z,43.43
2019-02-18T07:27:34.589Z,41.63
2019-02-18T07:30:00.937Z,45.15
2019-02-18T07:32:27.280Z,43.20
2019-02-18T07:34:53.515Z,45.48
2019-02-18T07:37:19.775Z,44.13
2019-02-18T07:39:46.161Z,41.95
2019-02-18T07:42:12.502Z,42.17
2019-02-18T07:44:38.826Z,45.58
2019-02-18T07:47:05.055Z,39.95
2019-02-18T07:49:31.289Z,38.73
2019-02-18T07:51:57.627Z,46.05
2019-02-18T07:54:23.884Z,40.92
2019-02-18T07:56:50.268Z,45.10
2019-02-18T07:59:16.598Z,49.70
2019-02-18T08:01:42.857Z,47.30
2019-02-18T08:04:09.160Z,40.88
2019-02-18T08:06:35.403Z,48.38
2019-02-18T08:09:04.038Z,50.12
2019-02-18T08:11:30.387Z,49.23
2019-02-18T08:13:56.750Z,55.75
2019-02-18T08:16:23.124Z,47.35
2019-02-18T08:18:49.449Z,48.23
2019-02-18T08:21:15.705Z,43.98
2019-02-18T08:23:42.885Z,49.27
2019-02-18T08:26:09.341Z,43.78
2019-02-18T08:28:35.669Z,43.17
2019-02-18T08:31:02.040Z,41.58
2019-02-18T08:33:29.564Z,43.52
2019-02-18T08:35:55.805Z,46.42
2019-02-18T08:38:22.063Z,44.60
2019-02-18T08:40:48.402Z,47.40
2019-02-18T08:43:14.737Z,47.30
2019-02-18T08:45:40.997Z,59.35
2019-02-18T08:48:07.222Z,49.83
2019-02-18T08:50:33.473Z,46.68
2019-02-18T08:52:59.804Z,49.05
2019-02-18T08:55:26.149Z,47.62
2019-02-18T08:57:52.484Z,45.45
2019-02-18T09:00:18.812Z,45.83
2019-02-18T09:02:45.072Z,44.85
2019-02-18T09:05:11.487Z,42.33
2019-02-18T09:07:37.816Z,42.10
2019-02-18T09:10:07.054Z,41.63
2019-02-18T09:12:33.395Z,46.58
2019-02-18T09:14:59.749Z,45.20
2019-02-18T09:17:25.962Z,47.48
2019-02-18T09:19:53.306Z,43.83
2019-02-18T09:22:30.417Z,39.05
2019-02-18T09:24:58.658Z,40.83
2019-02-18T09:27:25.002Z,42.62
2019-02-18T09:29:52.259Z,44.23
2019-02-18T09:32:18.583Z,44.75
2019-02-18T09:34:44.810Z,39.70
2019-02-18T09:37:11.083Z,38.53
2019-02-18T09:39:37.406Z,38.70
2019-02-18T09:42:03.648Z,37.53
2019-02-18T09:44:29.884Z,38.80
2019-02-18T09:46:56.113Z,45.20
2019-02-18T09:49:22.444Z,41.08
2019-02-18T09:51:48.777Z,41.83
2019-02-18T09:54:15.022Z,41.90
2019-02-18T09:56:41.252Z,37.53
2019-02-18T09:59:07.490Z,37.50
2019-02-18T10:01:33.721Z,36.63
2019-02-18T10:04:00.054Z,35.65
2019-02-18T10:06:26.456Z,35.90
2019-02-18T10:08:52.785Z,36.88
2019-02-18T10:11:19.026Z,40.20
2019-02-18T10:13:45.257Z,40.20
2019-02-18T10:16:12.606Z,43.37
2019-02-18T10:18:38.937Z,39.30
2019-02-18T10:21:05.222Z,45.58
2019-02-18T10:23:32.836Z,42.38
2019-02-18T10:26:05.460Z,43.58
2019-02-18T10:28:33.206Z,39.98
2019-02-18T10:31:02.506Z,36.85
2019-02-18T10:33:30.044Z,35.33
2019-02-18T10:36:00.206Z,38.08
2019-02-18T10:38:29.142Z,40.30
2019-02-18T10:41:06.906Z,33.83
2019-02-18T10:43:32.388Z,37.23
2019-02-18T10:45:56.681Z,34.03
2019-02-18T10:48:23.403Z,32.85
2019-02-18T10:50:49.750Z,32.35
2019-02-18T10:53:16.077Z,31.07
2019-02-18T10:55:42.424Z,35.88
2019-02-18T10:58:08.765Z,35.40
2019-02-18T11:00:35.109Z,38.25
2019-02-18T11:03:01.450Z,34.60
2019-02-18T11:05:27.782Z,34.70
2019-02-18T11:07:54.554Z,33.28
2019-02-18T11:10:20.896Z,34.85
2019-02-18T11:12:47.780Z,37.83
2019-02-18T11:15:14.176Z,34.27
2019-02-18T11:17:40.914Z,35.25
2019-02-18T11:20:09.232Z,33.02
2019-02-18T11:25:01.740Z,35.52
2019-02-18T11:27:28.064Z,30.52
2019-02-18T11:29:54.397Z,34.20
2019-02-18T11:32:20.744Z,31.12
2019-02-18T11:34:47.600Z,32.30
2019-02-18T11:37:13.954Z,29.50
2019-02-18T11:39:40.331Z,38.35
2019-02-18T11:42:06.677Z,37.88
2019-02-18T11:44:33.011Z,30.70
2019-02-18T11:46:59.445Z,34.43
2019-02-18T11:49:25.749Z,35.28
2019-02-18T11:51:52.076Z,29.32
2019-02-18T11:54:18.497Z,29.57
2019-02-18T11:56:44.861Z,30.40
2019-02-18T11:59:11.207Z,28.90
2019-02-18T12:01:37.453Z,31.35
2019-02-18T12:04:03.785Z,32.53
2019-02-18T12:06:30.133Z,29.20
2019-02-18T12:08:56.578Z,31.93
2019-02-18T12:11:22.999Z,31.77
2019-02-18T12:13:49.422Z,32.13
2019-02-18T12:16:15.745Z,28.67
2019-02-18T12:18:42.221Z,27.17
2019-02-18T12:21:08.566Z,27.50
2019-02-18T12:23:34.885Z,22.50
2019-02-18T12:26:01.129Z,23.47
2019-02-18T12:28:27.506Z,29.02
2019-02-18T12:30:53.851Z,34.38
2019-02-18T12:33:20.219Z,29.55
2019-02-18T12:35:46.545Z,27.07
2019-02-18T12:38:12.895Z,39.53
2019-02-18T12:40:39.273Z,31.02
2019-02-18T12:43:05.606Z,38.70
2019-02-18T12:45:31.948Z,33.65
2019-02-18T12:47:58.317Z,35.13
2019-02-18T12:50:24.650Z,32.45
2019-02-18T12:52:51.890Z,29.42
2019-02-18T12:55:18.383Z,24.95
2019-02-18T12:57:44.757Z,25.85
2019-02-18T13:00:12.971Z,22.35
2019-02-18T13:05:08.056Z,28.62
2019-02-18T13:07:34.405Z,23.80
2019-02-18T13:10:00.771Z,20.20
2019-02-18T13:12:27.173Z,23.92
2019-02-18T13:14:53.509Z,19.90
2019-02-18T13:17:20.373Z,20.82
2019-02-18T13:19:46.742Z,15.95
2019-02-18T13:22:13.081Z,16.40
2019-02-18T13:24:39.434Z,19.80
2019-02-18T13:27:06.856Z,13.50
2019-02-18T13:29:33.188Z,10.35
2019-02-18T13:31:59.569Z,9.43
2019-02-18T13:34:25.901Z,11.30
2019-02-18T13:36:55.353Z,11.63
2019-02-18T13:39:21.705Z,7.87
2019-02-18T13:41:48.045Z,11.50
2019-02-18T13:44:14.379Z,10.90
2019-02-18T13:46:40.731Z,9.73
2019-02-18T13:49:07.168Z,11.85
2019-02-18T13:51:33.506Z,13.25
2019-02-18T13:53:59.847Z,12.33
2019-02-18T13:56:26.184Z,16.70
2019-02-18T13:58:52.539Z,16.52
2019-02-18T14:01:18.877Z,17.00
2019-02-18T14:03:45.234Z,17.35
2019-02-18T14:06:11.581Z,14.55
2019-02-18T14:08:37.917Z,9.20
2019-02-18T14:11:04.237Z,12.60
2019-02-18T14:13:31.750Z,13.65
2019-02-18T14:15:58.494Z,12.40
2019-02-18T14:18:24.849Z,14.28
2019-02-18T14:20:51.224Z,18.52
2019-02-18T14:23:17.585Z,12.55
2019-02-18T14:25:44.042Z,8.73
2019-02-18T14:28:10.370Z,15.80
2019-02-18T14:30:36.701Z,11.93
2019-02-18T14:33:03.061Z,9.23
2019-02-18T14:35:29.805Z,10.32
2019-02-18T14:37:56.225Z,9.68
2019-02-18T14:40:22.525Z,9.88
2019-02-18T14:42:48.850Z,9.65
2019-02-18T14:45:15.212Z,8.53
2019-02-18T14:47:41.534Z,7.30
2019-02-18T14:50:08.461Z,11.68
2019-02-18T14:52:34.809Z,12.65
2019-02-18T14:55:01.435Z,7.70
2019-02-18T14:57:28.869Z,9.45
2019-02-18T14:59:57.642Z,13.98
2019-02-18T15:02:23.975Z,13.00
2019-02-18T15:04:50.308Z,10.23
2019-02-18T15:07:16.658Z,9.60
2019-02-18T15:09:42.991Z,9.55
2019-02-18T15:12:09.327Z,9.60
2019-02-18T15:14:37.149Z,9.18
2019-02-18T15:17:03.693Z,7.50
2019-02-18T15:19:30.038Z,8.95
2019-02-18T15:21:56.495Z,9.15
2019-02-18T15:24:22.921Z,9.13
2019-02-18T15:26:49.254Z,7.35
2019-02-18T15:29:15.623Z,7.20
2019-02-18T15:31:41.981Z,6.50
2019-02-18T15:34:08.425Z,8.08
2019-02-18T15:36:34.781Z,7.62
2019-02-18T15:39:01.262Z,9.40
2019-02-18T15:41:27.597Z,11.05
2019-02-18T15:43:54.049Z,10.70
2019-02-18T15:46:20.409Z,6.65
2019-02-18T15:48:46.747Z,13.22
2019-02-18T15:51:13.105Z,7.50
2019-02-18T15:53:39.481Z,8.80
2019-02-18T15:56:05.834Z,9.05
2019-02-18T15:58:32.170Z,6.12
2019-02-18T16:00:59.340Z,10.13
2019-02-18T16:03:25.780Z,6.72
2019-02-18T16:05:52.124Z,7.42
2019-02-18T16:08:18.498Z,8.43
2019-02-18T16:10:45.211Z,6.97
2019-02-18T16:13:11.571Z,12.28
2019-02-18T16:15:37.965Z,10.95
2019-02-18T16:18:04.370Z,7.15
2019-02-18T16:20:30.717Z,25.05
2019-02-18T16:22:57.101Z,16.07
2019-02-18T16:25:23.533Z,14.18
2019-02-18T16:27:54.921Z,16.55
2019-02-18T16:30:21.547Z,19.52
2019-02-18T16:32:48.898Z,23.60
2019-02-18T16:35:15.302Z,22.15
2019-02-18T16:37:41.700Z,25.05
2019-02-18T16:40:10.875Z,43.83
2019-02-18T16:42:37.337Z,60.10
2019-02-18T16:45:10.286Z,65.20
2019-02-18T16:47:36.664Z,92.80
2019-02-18T16:50:04.451Z,30.37
2019-02-18T16:52:31.903Z,24.60
2019-02-18T16:54:58.283Z,12.63
2019-02-18T16:57:24.675Z,12.37
2019-02-18T16:59:51.054Z,16.55
2019-02-18T17:02:17.446Z,20.60
2019-02-18T17:04:44.239Z,7.90
2019-02-18T17:07:10.618Z,14.43
2019-02-18T17:09:38.001Z,15.08
2019-02-18T17:12:04.331Z,11.22
2019-02-18T17:14:30.644Z,15.32
2019-02-18T17:16:57.095Z,17.52
2019-02-18T17:19:23.477Z,14.50
2019-02-18T17:21:49.818Z,10.95
2019-02-18T17:24:18.472Z,10.48
2019-02-18T17:29:11.025Z,12.53
2019-02-18T17:31:37.353Z,9.65
2019-02-18T17:34:03.753Z,13.78
2019-02-18T17:36:30.103Z,8.88
2019-02-18T17:38:56.434Z,8.35
2019-02-18T17:41:22.802Z,6.20
2019-02-18T17:43:49.770Z,9.08
2019-02-18T17:46:16.126Z,9.25
2019-02-18T17:48:42.522Z,10.95
2019-02-18T17:51:08.858Z,13.10
2019-02-18T17:53:35.201Z,11.05
2019-02-18T17:56:01.565Z,11.68
2019-02-18T17:58:27.905Z,13.48
2019-02-18T18:00:56.057Z,10.25
2019-02-18T18:03:22.802Z,13.13
2019-02-18T18:05:49.147Z,14.05
2019-02-18T18:08:15.486Z,17.82
2019-02-18T18:10:41.836Z,13.95
2019-02-18T18:13:08.349Z,13.98
2019-02-18T18:15:34.679Z,63.92
2019-02-18T18:18:01.177Z,31.57
2019-02-18T18:20:29.036Z,37.20
2019-02-18T18:22:56.826Z,44.60
2019-02-18T18:25:23.174Z,10.75
2019-02-18T18:27:49.512Z,11.12
2019-02-18T18:30:19.007Z,9.68
2019-02-18T18:32:45.390Z,8.85
2019-02-18T18:35:11.848Z,10.95
2019-02-18T18:37:38.174Z,6.72
2019-02-18T18:40:10.264Z,10.65
2019-02-18T18:42:36.594Z,11.78
2019-02-18T18:45:05.286Z,13.60
2019-02-18T18:47:31.712Z,12.50
2019-02-18T18:49:59.261Z,9.03
2019-02-18T18:52:25.589Z,8.50
2019-02-18T18:54:51.953Z,7.72
2019-02-18T18:57:18.621Z,17.57
2019-02-18T18:59:45.781Z,12.93
2019-02-18T19:02:13.119Z,11.43
2019-02-18T19:04:39.473Z,9.18
2019-02-18T19:07:05.826Z,53.58
2019-02-18T19:09:32.193Z,35.10
2019-02-18T19:11:58.431Z,24.15
2019-02-18T19:14:24.774Z,26.75
2019-02-18T19:16:51.134Z,18.75
2019-02-18T19:19:17.519Z,29.57
2019-02-18T19:21:43.875Z,31.55
2019-02-18T19:24:10.265Z,24.07
2019-02-18T19:26:36.599Z,19.25
2019-02-18T19:29:02.945Z,17.37
2019-02-18T19:31:29.314Z,28.30
2019-02-18T19:33:55.980Z,16.62
2019-02-18T19:36:22.310Z,24.12
2019-02-18T19:38:48.731Z,35.17
2019-02-18T19:41:15.077Z,19.45
2019-02-18T19:43:41.450Z,24.40
2019-02-18T19:46:07.812Z,15.83
2019-02-18T19:48:34.130Z,22.42
2019-02-18T19:51:00.534Z,17.23
2019-02-18T19:53:26.874Z,25.92
2019-02-18T19:55:53.150Z,45.50
2019-02-18T19:58:19.501Z,44.55
2019-02-18T20:00:45.851Z,25.48
2019-02-18T20:03:12.194Z,20.92
2019-02-18T20:05:38.455Z,18.20
2019-02-18T20:08:04.850Z,21.65
2019-02-18T20:10:31.501Z,11.28
2019-02-18T20:12:57.837Z,12.98
2019-02-18T20:15:24.217Z,18.20
2019-02-18T20:17:50.570Z,12.28
2019-02-18T20:20:17.013Z,10.28
2019-02-18T20:22:43.387Z,11.83
2019-02-18T20:25:09.894Z,10.65
2019-02-18T20:27:36.241Z,11.60
2019-02-18T20:30:09.460Z,8.10
2019-02-18T20:32:35.790Z,6.87
2019-02-18T20:35:02.900Z,17.77
2019-02-18T20:37:29.556Z,7.17
2019-02-18T20:39:55.907Z,9.55
2019-02-18T20:42:22.235Z,9.58
2019-02-18T20:44:48.576Z,7.90
2019-02-18T20:47:15.461Z,7.40
2019-02-18T20:49:41.783Z,8.13
2019-02-18T20:52:10.538Z,5.55
2019-02-18T20:54:36.985Z,5.47
2019-02-18T20:57:03.309Z,7.95
2019-02-18T20:59:29.651Z,7.45
2019-02-18T21:01:55.983Z,11.55
2019-02-18T21:04:22.613Z,9.80
2019-02-18T21:06:48.987Z,5.62
2019-02-18T21:09:15.353Z,9.18
2019-02-18T21:11:41.693Z,8.45
2019-02-18T21:14:14.344Z,5.53
2019-02-18T21:16:36.249Z,7.97
2019-02-18T21:19:02.692Z,7.97
2019-02-18T21:21:29.106Z,10.35
2019-02-18T21:23:55.637Z,5.80
2019-02-18T21:26:21.858Z,4.47
2019-02-18T21:28:48.111Z,5.80
2019-02-18T21:31:14.504Z,9.13
2019-02-18T21:33:40.812Z,10.45
2019-02-18T21:36:07.179Z,8.48
2019-02-18T21:38:33.493Z,9.25
2019-02-18T21:40:59.870Z,5.87
2019-02-18T21:43:26.545Z,9.35
2019-02-18T21:45:52.773Z,6.95
2019-02-18T21:48:19.111Z,7.92
2019-02-18T21:50:45.415Z,8.45
2019-02-18T21:53:12.771Z,8.87
2019-02-18T21:55:39.142Z,5.78
2019-02-18T21:58:05.553Z,8.80
2019-02-18T22:00:31.938Z,5.67
2019-02-18T22:02:58.653Z,3.75
2019-02-18T22:05:25.001Z,5.37
2019-02-18T22:07:51.360Z,9.78
2019-02-18T22:10:17.701Z,7.28
2019-02-18T22:12:44.079Z,6.30
2019-02-18T22:15:12.131Z,4.40
2019-02-18T22:17:38.395Z,6.37
2019-02-18T22:20:07.633Z,9.50
2019-02-18T22:22:34.237Z,6.40
2019-02-18T22:25:01.886Z,8.28
2019-02-18T22:27:28.321Z,5.78
2019-02-18T22:29:54.745Z,7.67
2019-02-18T22:32:21.069Z,6.12
2019-02-18T22:34:47.417Z,8.23
2019-02-18T22:37:13.645Z,10.58
2019-02-18T22:39:40.001Z,7.92
2019-02-18T22:42:06.677Z,8.78
2019-02-18T22:44:33.039Z,5.75
2019-02-18T22:46:59.380Z,11.12
2019-02-18T22:49:25.729Z,11.33
2019-02-18T22:51:52.061Z,8.85
2019-02-18T22:54:18.401Z,6.70
2019-02-18T22:56:44.761Z,10.88
2019-02-18T22:59:11.122Z,10.10
2019-02-18T23:01:37.490Z,10.53
2019-02-18T23:04:04.183Z,10.80
2019-02-18T23:06:30.546Z,7.78
2019-02-18T23:08:56.893Z,6.62
2019-02-18T23:11:23.270Z,8.13
2019-02-18T23:13:49.542Z,10.20
2019-02-18T23:16:15.870Z,20.37
2019-02-18T23:18:42.210Z,8.55
2019-02-18T23:21:08.605Z,8.68
2019-02-18T23:23:34.999Z,8.88
2019-02-18T23:26:01.344Z,10.45
2019-02-18T23:28:27.702Z,10.88
2019-02-18T23:30:54.198Z,11.97
2019-02-18T23:33:20.552Z,5.62
2019-02-18T23:35:46.889Z,9.88
2019-02-18T23:38:13.146Z,7.15
2019-02-18T23:40:39.497Z,8.20
2019-02-18T23:43:05.853Z,9.70
2019-02-18T23:45:32.205Z,9.58
2019-02-18T23:47:58.500Z,6.42
2019-02-18T23:50:25.833Z,8.57
2019-02-18T23:52:52.062Z,13.20
2019-02-18T23:55:18.393Z,7.53
2019-02-18T23:57:44.685Z,9.68
